Palmer, Washington
Current Conditions -  °F | °C
As of 10:53 AM on Sunday 21 Dec 2014 (Local Time) from KRNT Reporting Station
Overcast Overcast  
Wind Chill: 53°   Ceiling: 2300
Heat Index: 53°   Visibility: 10mi
Dew Point: 47°   Wind: 6mph
Humidity: 80%   Direction: 160°SSE
Pressure: 29.94"   Gusts: NA
Location:  47.3777°N, 121.913°W
Report Text: KRNT 211853Z 16005KT 10SM BKN023 OVC029 12/08 A2994 RMK AO2 SLP142 T01170083 $
Loading
Personal Weather Stations






























Interactive Weather Map New forecast layout! Learn more

10-Day Weather Forecast

Advertisements
Track Severe Weather on mobile